createdAt,value
2022-11-25T00:03:08.891Z,-0.60
2022-11-25T00:08:10.706Z,-0.50
2022-11-25T00:13:12.534Z,-0.50
2022-11-25T00:18:14.358Z,-0.60
2022-11-25T00:23:16.044Z,-0.60
2022-11-25T00:28:18.697Z,-0.50
2022-11-25T00:33:20.425Z,-0.50
2022-11-25T00:38:22.154Z,-0.60
2022-11-25T00:43:42.633Z,-0.50
2022-11-25T00:48:44.393Z,-0.50
2022-11-25T00:53:46.439Z,-0.50
2022-11-25T00:58:48.416Z,-0.50
2022-11-25T01:03:51.669Z,-0.50
2022-11-25T01:08:53.517Z,-0.50
2022-11-25T01:14:00.888Z,-0.50
2022-11-25T01:19:04.022Z,-0.50
2022-11-25T01:24:06.802Z,-0.50
2022-11-25T01:29:17.273Z,-0.40
2022-11-25T01:34:21.435Z,-0.50
2022-11-25T01:39:31.693Z,-0.50
2022-11-25T01:44:39.366Z,-0.50
2022-11-25T01:49:50.400Z,-0.40
2022-11-25T01:55:06.946Z,-0.40
2022-11-25T02:00:10.322Z,-0.50
2022-11-25T02:05:16.177Z,-0.50
2022-11-25T02:10:27.452Z,-0.40
2022-11-25T02:15:31.258Z,-0.40
2022-11-25T02:20:33.272Z,-0.40
2022-11-25T02:25:37.487Z,-0.40
2022-11-25T02:30:40.102Z,-0.40
2022-11-25T02:35:46.841Z,-0.50
2022-11-25T02:40:57.611Z,-0.40
2022-11-25T02:46:05.797Z,-0.40
2022-11-25T02:51:09.880Z,-0.40
2022-11-25T02:56:13.498Z,-0.40
2022-11-25T03:01:15.453Z,-0.40
2022-11-25T03:06:17.288Z,-0.40
2022-11-25T03:11:19.357Z,-0.40
2022-11-25T03:16:21.101Z,-0.40
2022-11-25T03:21:23.035Z,-0.40
2022-11-25T03:26:26.160Z,-0.40
2022-11-25T03:31:28.196Z,-0.40
2022-11-25T03:36:29.980Z,-0.40
2022-11-25T03:41:31.702Z,-0.40
2022-11-25T03:46:33.637Z,-0.40
2022-11-25T03:51:35.452Z,-0.40
2022-11-25T03:56:37.230Z,-0.50
2022-11-25T04:01:42.904Z,-0.50
2022-11-25T04:06:46.094Z,-0.60
2022-11-25T04:12:06.571Z,-0.60
2022-11-25T04:17:08.438Z,-0.60
2022-11-25T04:22:10.275Z,-0.60
2022-11-25T04:27:12.211Z,-0.70
2022-11-25T04:32:13.930Z,-0.70
2022-11-25T04:37:15.712Z,-0.70
2022-11-25T04:42:33.262Z,-0.70
2022-11-25T04:47:35.566Z,-0.70
2022-11-25T04:52:37.410Z,-0.70
2022-11-25T04:57:39.315Z,-0.70
2022-11-25T05:02:41.948Z,-0.70
2022-11-25T05:07:44.717Z,-0.70
2022-11-25T05:12:46.515Z,-0.70
2022-11-25T05:17:48.281Z,-0.70
2022-11-25T05:22:50.079Z,-0.70
2022-11-25T05:27:52.046Z,-0.70
2022-11-25T05:32:53.868Z,-0.70
2022-11-25T05:37:55.690Z,-0.60
2022-11-25T05:43:00.817Z,-0.70
2022-11-25T05:48:02.726Z,-0.70
2022-11-25T05:53:05.266Z,-0.70
2022-11-25T05:58:07.179Z,-0.60
2022-11-25T06:03:09.366Z,-0.60
2022-11-25T06:08:11.582Z,-0.70
2022-11-25T06:13:13.397Z,-0.60
2022-11-25T06:18:17.623Z,-0.60
2022-11-25T06:23:19.438Z,-0.60
2022-11-25T06:28:21.189Z,-0.50
2022-11-25T06:33:23.057Z,-0.60
2022-11-25T06:38:24.842Z,-0.60
2022-11-25T06:43:26.597Z,-0.70
2022-11-25T06:48:28.709Z,-0.70
2022-11-25T06:53:31.689Z,-0.70
2022-11-25T06:58:36.122Z,-0.60
2022-11-25T07:03:38.650Z,-0.60
2022-11-25T07:08:41.470Z,-0.60
2022-11-25T07:13:44.146Z,-0.60
2022-11-25T07:18:45.932Z,-0.50
2022-11-25T07:23:48.275Z,-0.50
2022-11-25T07:28:51.992Z,-0.50
2022-11-25T07:33:59.591Z,-0.50
2022-11-25T07:39:04.859Z,-0.60
2022-11-25T07:44:08.211Z,-0.50
2022-11-25T07:49:22.281Z,-0.50
2022-11-25T07:54:24.663Z,-0.50
2022-11-25T07:59:26.589Z,-0.40
2022-11-25T08:04:28.525Z,-0.30
2022-11-25T08:09:30.482Z,-0.30
2022-11-25T08:14:32.625Z,-0.30
2022-11-25T08:19:35.970Z,-0.30
2022-11-25T08:24:38.058Z,-0.20
2022-11-25T08:29:40.024Z,-0.20
2022-11-25T08:34:42.708Z,-0.40
2022-11-25T08:39:52.450Z,-0.30
2022-11-25T08:44:56.328Z,-0.40
2022-11-25T08:49:58.199Z,-0.40
2022-11-25T08:55:01.228Z,-0.40
2022-11-25T09:00:05.047Z,-0.40
2022-11-25T09:05:06.971Z,-0.30
2022-11-25T09:10:14.029Z,-0.30
2022-11-25T09:15:15.843Z,-0.30
2022-11-25T09:20:17.822Z,-0.20
2022-11-25T09:25:21.444Z,-0.10
2022-11-25T09:30:24.429Z,0.00
2022-11-25T09:35:26.879Z,-0.20
2022-11-25T09:40:38.286Z,-0.20
2022-11-25T09:46:08.571Z,-0.10
2022-11-25T09:51:39.727Z,0.00
2022-11-25T09:56:45.900Z,0.10
2022-11-25T10:02:00.232Z,0.30
2022-11-25T10:07:05.285Z,0.40
2022-11-25T10:12:19.801Z,0.50
2022-11-25T10:17:37.996Z,0.60
2022-11-25T10:22:49.086Z,0.70
2022-11-25T10:28:15.742Z,0.90
2022-11-25T10:33:51.043Z,1.20
2022-11-25T10:39:05.144Z,1.00
2022-11-25T10:44:25.909Z,0.90
2022-11-25T10:49:38.255Z,0.80
2022-11-25T10:54:40.971Z,0.60
2022-11-25T10:59:53.309Z,0.50
2022-11-25T11:05:02.844Z,0.70
2022-11-25T11:10:27.994Z,0.50
2022-11-25T11:15:42.126Z,0.50
2022-11-25T11:20:52.418Z,0.60
2022-11-25T11:25:58.610Z,0.60
2022-11-25T11:31:15.618Z,0.60
2022-11-25T11:36:23.637Z,0.60
2022-11-25T11:41:28.171Z,0.60
2022-11-25T11:46:37.591Z,0.60
2022-11-25T11:51:39.373Z,0.50
2022-11-25T11:56:55.271Z,0.60
2022-11-25T12:02:15.492Z,0.50
2022-11-25T12:07:52.436Z,0.50
2022-11-25T12:13:40.450Z,0.50
2022-11-25T12:18:47.676Z,0.50
2022-11-25T12:24:05.323Z,0.50
2022-11-25T12:29:12.418Z,0.50
2022-11-25T12:34:27.663Z,0.40
2022-11-25T12:39:37.540Z,0.40
2022-11-25T12:45:03.679Z,0.40
2022-11-25T12:50:06.053Z,0.40
2022-11-25T12:55:38.824Z,0.30
2022-11-25T13:01:14.622Z,0.40
2022-11-25T13:06:38.900Z,0.40
2022-11-25T13:11:52.968Z,0.30
2022-11-25T13:16:57.387Z,0.30
2022-11-25T13:22:02.792Z,0.30
2022-11-25T13:27:05.683Z,0.30
2022-11-25T13:32:34.596Z,0.30
2022-11-25T13:37:43.382Z,0.20
2022-11-25T13:42:45.466Z,0.20
2022-11-25T13:47:49.520Z,0.10
2022-11-25T13:53:05.386Z,0.20
2022-11-25T13:58:10.261Z,0.10
2022-11-25T14:03:21.617Z,0.10
2022-11-25T14:08:46.688Z,0.10
2022-11-25T14:13:56.993Z,0.10
2022-11-25T14:19:54.823Z,0.10
2022-11-25T14:24:46.098Z,0.10
2022-11-25T14:30:09.537Z,0.00
2022-11-25T14:35:23.284Z,0.00
2022-11-25T14:40:41.813Z,-0.10
2022-11-25T14:45:43.698Z,-0.10
2022-11-25T14:51:10.105Z,-0.10
2022-11-25T14:56:14.022Z,-0.20
2022-11-25T15:01:21.942Z,-0.20
2022-11-25T15:06:28.130Z,-0.20
2022-11-25T15:11:33.599Z,-0.20
2022-11-25T15:16:41.421Z,-0.30
2022-11-25T15:22:20.809Z,-0.30
2022-11-25T15:27:18.258Z,-0.30
2022-11-25T15:32:26.723Z,-0.40
2022-11-25T15:37:29.386Z,-0.40
2022-11-25T15:42:33.197Z,-0.40
2022-11-25T15:47:35.358Z,-0.40
2022-11-25T15:52:39.833Z,-0.50
2022-11-25T15:57:42.086Z,-0.40
2022-11-25T16:02:43.872Z,-0.50
2022-11-25T16:07:52.278Z,-0.40
2022-11-25T16:13:16.784Z,-0.50
2022-11-25T16:18:42.841Z,-0.50
2022-11-25T16:23:50.562Z,-0.40
2022-11-25T16:28:56.016Z,-0.40
2022-11-25T16:34:12.547Z,-0.40
2022-11-25T16:39:14.264Z,-0.40
2022-11-25T16:44:21.356Z,-0.40
2022-11-25T16:49:23.829Z,-0.50
2022-11-25T16:54:25.683Z,-0.60
2022-11-25T16:59:31.935Z,-0.60
2022-11-25T17:04:33.758Z,-0.60
2022-11-25T17:09:35.934Z,-0.70
2022-11-25T17:14:38.449Z,-0.70
2022-11-25T17:19:41.019Z,-0.70
2022-11-25T17:24:42.998Z,-0.70
2022-11-25T17:29:45.240Z,-0.70
2022-11-25T17:34:47.206Z,-0.70
2022-11-25T17:39:49.643Z,-0.80
2022-11-25T17:44:54.096Z,-0.70
2022-11-25T17:49:57.999Z,-0.70
2022-11-25T17:54:59.710Z,-0.80
2022-11-25T18:00:02.203Z,-0.70
2022-11-25T18:05:14.862Z,-0.70
2022-11-25T18:10:19.785Z,-0.70
2022-11-25T18:15:27.313Z,-0.70
2022-11-25T18:20:31.138Z,-0.70
2022-11-25T18:25:34.272Z,-0.70
2022-11-25T18:30:39.075Z,-0.80
2022-11-25T18:35:41.313Z,-0.80
2022-11-25T18:40:48.794Z,-0.70
2022-11-25T18:45:55.563Z,-0.70
2022-11-25T18:50:57.663Z,-0.80
2022-11-25T18:55:59.950Z,-0.80
2022-11-25T19:01:10.903Z,-0.80
2022-11-25T19:06:15.338Z,-0.70
2022-11-25T19:11:36.423Z,-0.70
2022-11-25T19:16:39.132Z,-0.70
2022-11-25T19:21:40.898Z,-0.70
2022-11-25T19:26:47.977Z,-0.90
2022-11-25T19:31:54.043Z,-0.90
2022-11-25T19:36:55.994Z,-0.90
2022-11-25T19:41:57.742Z,-0.90
2022-11-25T19:47:14.961Z,-0.90
2022-11-25T19:52:21.042Z,-0.90
2022-11-25T19:57:23.943Z,-0.90
2022-11-25T20:02:26.657Z,-0.90
2022-11-25T20:07:31.217Z,-1.00
2022-11-25T20:12:33.430Z,-1.00
2022-11-25T20:17:37.530Z,-1.00
2022-11-25T20:22:44.110Z,-1.00
2022-11-25T20:27:45.977Z,-1.00
2022-11-25T20:32:47.950Z,-1.00
2022-11-25T20:37:58.012Z,-1.00
2022-11-25T20:43:00.223Z,-1.00
2022-11-25T20:48:02.278Z,-1.00
2022-11-25T20:53:04.182Z,-1.10
2022-11-25T20:58:29.178Z,-1.10
2022-11-25T21:03:30.907Z,-1.20
2022-11-25T21:08:32.676Z,-1.10
2022-11-25T21:13:34.607Z,-1.00
2022-11-25T21:18:36.381Z,-1.10
2022-11-25T21:23:38.643Z,-1.10
2022-11-25T21:28:45.631Z,-1.10
2022-11-25T21:33:48.150Z,-1.10
2022-11-25T21:38:52.524Z,-1.10
2022-11-25T21:43:54.452Z,-1.10
2022-11-25T21:48:56.233Z,-1.10
2022-11-25T21:53:57.954Z,-1.10
2022-11-25T21:59:02.697Z,-1.20
2022-11-25T22:04:04.577Z,-1.20
2022-11-25T22:09:06.421Z,-1.30
2022-11-25T22:14:28.762Z,-1.20
2022-11-25T22:19:31.074Z,-1.20
2022-11-25T22:24:34.066Z,-1.20
2022-11-25T22:29:36.764Z,-1.20
2022-11-25T22:34:38.645Z,-1.20
2022-11-25T22:39:40.618Z,-1.20
2022-11-25T22:44:48.045Z,-1.20
2022-11-25T22:49:50.739Z,-1.20
2022-11-25T22:54:53.542Z,-1.20
2022-11-25T22:59:55.466Z,-1.20
2022-11-25T23:04:57.209Z,-1.10
2022-11-25T23:09:59.199Z,-1.10
2022-11-25T23:15:00.982Z,-1.20
2022-11-25T23:20:02.992Z,-1.10
2022-11-25T23:25:12.178Z,-1.10
2022-11-25T23:30:21.475Z,-1.10
2022-11-25T23:35:37.668Z,-1.20
2022-11-25T23:40:39.538Z,-1.20
2022-11-25T23:45:56.107Z,-1.10
2022-11-25T23:50:59.075Z,-1.20
2022-11-25T23:56:01.063Z,-1.20
